Data for 06/02/2006

Time Sea-Level Adjusted Pressure Absolute Pressure Temperature Relative Humidity Dew Point   
(mb) (inHg) (mb) (inHg) (C) (F) (%) (C) (F)
00:05 1020 30.12 849 25.07 17.6 63.7 34 1.6 35
00:10 1020 30.12 849 25.07 17.8 64 34 1.6 34.9
00:15 1020 30.12 849 25.07 18.1 64.6 32 1.3 34.4
00:20 1020 30.12 849 25.07 18.2 64.7 31 1.1 34
00:25 1020 30.12 849 25.07 18.4 65.2 31 1.3 34.4
00:30 1020 30.12 849 25.07 18.4 65.1 32 1.4 34.5
00:35 1020 30.12 849 25.07 18.1 64.6 33 1.5 34.8
00:40 1020 30.12 849 25.07 17.9 64.2 33 1.5 34.8
00:45 1020 30.12 849 25.07 17.7 63.8 33 1.5 34.6
00:50 1020 30.12 849 25.07 17.5 63.4 34 1.5 34.7
00:55 1020 30.12 849 25.07 17.3 63.1 34 1.5 34.7
01:00 1020 30.12 849 25.07 17.2 63 34 1.5 34.7
01:05 1020 30.12 849 25.07 17.1 62.8 35 1.5 34.8
01:10 1020 30.12 849 25.07 16.9 62.3 35 1.5 34.8
01:15 1020 30.12 849 25.07 16.7 62 36 1.7 35.1
01:20 1020 30.12 849 25.07 16.6 61.9 36 1.5 34.7
01:25 1020 30.12 849 25.07 16.5 61.7 37 1.8 35.3
01:30 1020 30.12 849 25.07 16.3 61.4 38 2 35.7
01:35 1020 30.12 849 25.07 16.1 61 39 2.1 35.8
01:40 1020 30.12 849 25.07 15.9 60.5 39 2 35.6
01:45 1020 30.12 849 25.07 15.7 60.3 42 2.8 37.1
01:50 1020 30.12 849 25.07 15 59 44 3.1 37.6
01:55 1020 30.12 849 25.07 14.5 58.2 47 3.4 38.1
02:00 1020 30.12 849 25.07 14.4 58 46 3.2 37.7
02:05 1020 30.12 849 25.07 14.7 58.4 45 2.9 37.2
02:10 1020 30.12 849 25.07 14.6 58.4 45 2.9 37.2
02:15 1020 30.12 849 25.07 14.6 58.4 44 2.7 36.8
02:20 1020 30.12 849 25.07 14.9 58.8 44 3 37.4
02:25 1020 30.12 849 25.07 15.3 59.5 43 3 37.3
02:30 1020 30.12 849 25.07 14.9 58.7 44 2.9 37.3
02:35 1020 30.12 849 25.07 14.8 58.6 45 2.9 37.2
02:40 1020 30.12 849 25.07 14.7 58.4 45 2.9 37.2
02:45 1020 30.12 849 25.07 14.8 58.6 45 3.1 37.5
02:50 1020 30.12 849 25.07 14.8 58.7 44 2.7 36.9
02:55 1020 30.12 849 25.07 14.7 58.4 44 2.5 36.6
03:00 1020 30.12 849 25.07 14.7 58.5 43 2.5 36.5
03:05 1020 30.12 849 25.07 14.8 58.6 44 2.7 36.9
03:10 1020 30.12 849 25.07 14.8 58.6 42 2.2 35.9
03:15 1020 30.12 849 25.07 14.9 58.8 42 2.1 35.8
03:20 1020 30.12 849 25.07 14.9 58.8 42 2.2 35.9
03:25 1020 30.12 849 25.07 14.8 58.6 42 2.2 36
03:30 1020 30.12 849 25.07 15 59 41 2 35.6
03:35 1020 30.12 849 25.07 14.9 58.8 42 2.1 35.9
03:40 1020 30.12 849 25.07 14.8 58.7 41 1.9 35.4
03:45 1020 30.12 849 25.07 14.8 58.6 43 2.5 36.4
03:50 1020 30.12 849 25.07 14.7 58.4 42 2 35.5
03:55 1020 30.12 849 25.07 14.6 58.2 42 1.8 35.2
04:00 1020 30.12 849 25.07 14.6 58.3 42 1.8 35.3
04:05 1020 30.12 849 25.07 14.5 58.1 42 1.7 35.1
04:10 1020 30.12 849 25.07 14.6 58.2 41 1.7 35
04:15 1020 30.12 849 25.07 14.9 58.8 39 1.2 34.1
04:20 1020 30.12 849 25.07 15 59 39 1.4 34.5
04:25 1020 30.12 849 25.07 14.7 58.4 40 1.5 34.6
04:30 1020 30.12 849 25.07 14.7 58.4 40 1.3 34.3
04:35 1020 30.12 849 25.07 14.8 58.7 38 0.9 33.6
04:40 1020 30.12 849 25.07 15 59 38 0.9 33.7
04:45 1020 30.12 849 25.07 14.7 58.5 41 1.6 34.9
04:50 1020 30.12 849 25.07 14.4 58 42 1.7 35.1
04:55 1020 30.12 849 25.07 14.5 58.1 40 1.3 34.3
05:00 1020 30.12 849 25.07 14.2 57.6 40 0.9 33.6
05:05 1019 30.09 849 25.07 13.9 57 43 1.6 34.9
05:10 1019 30.09 848 25.04 14 57.2 39 0.4 32.8
05:15 1019 30.09 848 25.04 14.6 58.2 38 0.5 32.9
05:20 1019 30.09 848 25.04 14.8 58.6 36 -0 32
05:25 1019 30.09 848 25.04 14.9 58.7 38 0.6 33.1
05:30 1019 30.09 848 25.04 14.9 58.8 37 0.3 32.5
05:35 1019 30.09 848 25.04 15 58.9 38 1 33.7
05:40 1019 30.09 848 25.04 14.8 58.7 37 0.2 32.4
05:45 1019 30.09 848 25.04 14.9 58.7 37 0.4 32.7
05:50 1019 30.09 848 25.04 14.5 58.1 39 0.8 33.4
05:55 1019 30.09 848 25.04 14.2 57.6 40 0.8 33.4
06:00 1019 30.09 849 25.07 14.4 57.9 39 0.6 33
06:05 1019 30.09 849 25.07 14.6 58.3 36 -0.1 31.8
06:10 1019 30.09 849 25.07 14.8 58.6 37 0.3 32.5
06:15 1019 30.09 849 25.07 14.8 58.6 37 0.2 32.4
06:20 1019 30.09 849 25.07 14.9 58.9 38 0.7 33.2
06:25 1019 30.09 849 25.07 15.1 59.2 35 -0.3 31.4
06:30 1020 30.12 849 25.07 15.4 59.8 35 0.1 32.2
06:35 1020 30.12 849 25.07 15.4 59.7 35 0.3 32.5
06:40 1020 30.12 849 25.07 15.4 59.6 37 0.8 33.4
06:45 1020 30.12 849 25.07 15.2 59.3 39 1.5 34.7
06:50 1020 30.12 849 25.07 15.1 59.3 39 1.5 34.6
06:55 1020 30.12 849 25.07 15.1 59.2 39 1.5 34.6
07:00 1020 30.12 849 25.07 15.2 59.4 40 1.7 35.1
07:05 1020 30.12 849 25.07 15.4 59.8 44 3.4 38.1
07:10 1020 30.12 849 25.07 15.7 60.3 39 1.9 35.4
07:15 1020 30.12 849 25.07 16 60.9 38 2 35.6
07:20 1020 30.12 849 25.07 16.1 60.9 39 2.2 36
07:25 1020 30.12 850 25.1 16.3 61.3 39 2.2 36
07:30 1020 30.12 850 25.1 16.6 61.9 39 2.7 36.8
07:35 1020 30.12 850 25.1 17.2 62.9 38 2.9 37.3
07:40 1020 30.12 850 25.1 17.3 63.1 38 3.1 37.6
07:45 1020 30.12 850 25.1 17.2 63 40 3.7 38.7
07:50 1020 30.12 850 25.1 16.9 62.4 43 4.4 39.9
07:55 1021 30.15 850 25.1 16.7 62 42 3.8 38.8
08:00 1021 30.15 850 25.1 16.3 61.3 43 3.9 39.1
08:05 1021 30.15 850 25.1 16.3 61.3 42 3.6 38.4
08:10 1021 30.15 850 25.1 17.1 62.7 42 4.2 39.5
08:15 1021 30.15 850 25.1 17.4 63.4 39 3.4 38.1
08:20 1021 30.15 850 25.1 17.7 63.9 37 3 37.4
08:25 1021 30.15 850 25.1 18.6 65.5 34 2.6 36.7
08:30 1021 30.15 850 25.1 18.7 65.7 36 3.5 38.3
08:35 1020 30.12 850 25.1 18.8 65.8 37 3.7 38.7
08:40 1020 30.12 850 25.1 19.2 66.5 42 6 42.8
08:45 1020 30.12 850 25.1 19.4 66.9 38 4.7 40.5
08:50 1020 30.12 850 25.1 19.3 66.7 36 3.8 38.9
08:55 1020 30.12 850 25.1 19.7 67.4 37 4.9 40.8
09:00 1020 30.12 850 25.1 19.6 67.3 35 3.9 39
09:05 1020 30.12 850 25.1 20.2 68.4 34 4.1 39.3
09:10 1020 30.12 850 25.1 20.8 69.5 34 4.5 40.1
09:15 1020 30.12 850 25.1 20.6 69 30 2.4 36.3
09:20 1020 30.12 850 25.1 20.7 69.2 32 3.5 38.3
09:25 1020 30.12 850 25.1 21.2 70.1 31 3.4 38.1
09:30 1021 30.15 850 25.1 21.5 70.6 28 2.5 36.5
09:35 1021 30.15 850 25.1 22.2 71.9 27 2.3 36.1
09:40 1021 30.15 850 25.1 23.1 73.5 26 3 37.3
09:45 1021 30.15 850 25.1 22.9 73.2 30 4.6 40.3
09:50 1021 30.15 850 25.1 22.6 72.7 29 4 39.2
09:55 1021 30.15 850 25.1 22.8 73 31 4.9 40.9
10:00 1021 30.15 850 25.1 21.8 71.3 33 5.2 41.3
10:05 1020 30.12 850 25.1 20.7 69.2 35 5 41
10:10 1021 30.15 850 25.1 20.8 69.4 34 4.6 40.3
10:15 1021 30.15 850 25.1 21.3 70.4 33 4.5 40.1
10:20 1021 30.15 850 25.1 20.8 69.4 35 4.8 40.6
10:25 1021 30.15 850 25.1 20.9 69.6 35 5 41
10:30 1021 30.15 850 25.1 20.9 69.5 35 4.8 40.7
10:35 1021 30.15 850 25.1 21.1 70 33 4.5 40
10:40 1021 30.15 850 25.1 21.4 70.6 31 3.8 38.8
10:45 1020 30.12 850 25.1 20.7 69.3 36 5.1 41.1
10:50 1020 30.12 850 25.1 20.3 68.6 33 3.8 38.9
10:55 1021 30.15 850 25.1 20.4 68.8 34 4.1 39.3
11:00 1020 30.12 850 25.1 21 69.7 32 3.9 39
11:05 1020 30.12 849 25.07 20.8 69.5 33 4.1 39.3
11:10 1020 30.12 849 25.07 21.1 70 31 3.4 38.2
11:15 1020 30.12 849 25.07 21.7 71.1 30 3.7 38.6
11:20 1020 30.12 849 25.07 22.7 72.8 29 4.1 39.4
11:25 1020 30.12 849 25.07 22.4 72.2 30 4.1 39.3
11:30 1020 30.12 849 25.07 22.3 72.2 30 3.9 39.1
11:35 1020 30.12 849 25.07 21.9 71.4 33 5.1 41.1
11:40 1020 30.12 849 25.07 21.7 71 34 5.4 41.7
11:45 1020 30.12 849 25.07 21.8 71.2 34 5.5 41.9
11:50 1020 30.12 849 25.07 22.7 72.8 33 5.6 42.1
11:55 1020 30.12 849 25.07 23.5 74.3 32 6.1 42.9
12:00 1019 30.09 849 25.07 23.8 74.8 32 6.5 43.8
12:05 1019 30.09 848 25.04 24.1 75.3 31 6.2 43.2
12:10 1019 30.09 848 25.04 24.9 76.8 30 6.6 43.9
12:15 1019 30.09 848 25.04 25.3 77.5 29 6.2 43.1
12:20 1019 30.09 848 25.04 26.6 79.9 26 5.9 42.7
12:25 1019 30.09 848 25.04 26.2 79.2 27 5.8 42.5
12:30 1019 30.09 848 25.04 26.2 79.2 27 6.3 43.3
12:35 1019 30.09 848 25.04 27 80.6 23 4.5 40.1
12:40 1019 30.09 848 25.04 27.1 80.7 25 5.7 42.2
12:45 1019 30.09 848 25.04 27.5 81.6 26 6.7 44.1
12:50 1019 30.09 848 25.04 26.7 80 28 7.1 44.7
12:55 1019 30.09 848 25.04 25.9 78.6 29 6.8 44.3
13:00 1019 30.09 848 25.04 25.8 78.5 29 6.5 43.7
13:05 1018 30.06 848 25.04 25.2 77.3 31 6.9 44.4
13:10 1018 30.06 848 25.04 24.5 76 32 6.8 44.2
13:15 1018 30.06 847 25.01 24.6 76.3 32 7.2 45
13:20 1018 30.06 847 25.01 25.4 77.7 29 6.2 43.2
13:25 1018 30.06 847 25.01 26 78.7 29 6.7 44.1
13:30 1018 30.06 847 25.01 26.7 80 27 6.5 43.6
13:35 1018 30.06 847 25.01 26.3 79.3 29 7.1 44.7
13:40 1018 30.06 847 25.01 26.2 79.2 29 6.9 44.5
13:45 1018 30.06 847 25.01 26.3 79.3 29 7.2 44.9
13:50 1018 30.06 847 25.01 27.1 80.7 27 6.8 44.3
13:55 1018 30.06 847 25.01 27.3 81.1 28 7.2 45
14:00 1018 30.06 847 25.01 27.2 81 29 7.9 46.2
14:05 1018 30.06 847 25.01 27.4 81.4 28 7.6 45.6
14:10 1018 30.06 847 25.01 27.3 81.1 30 8.3 46.9
14:15 1018 30.06 847 25.01 26.7 80 29 7.4 45.3
14:20 1017 30.03 847 25.01 26.1 79.1 31 7.8 46.1
14:25 1017 30.03 846 24.98 26.2 79.2 30 7.6 45.7
14:30 1017 30.03 846 24.98 26.2 79.2 31 7.8 46.1
14:35 1017 30.03 846 24.98 25.8 78.4 29 6.6 43.9
14:40 1017 30.03 847 25.01 25.5 77.8 31 7.3 45.2
14:45 1017 30.03 847 25.01 25.4 77.8 31 7.3 45.1
14:50 1017 30.03 846 24.98 25.3 77.5 30 6.8 44.3
14:55 1017 30.03 846 24.98 26 78.8 30 7.2 44.9
15:00 1017 30.03 846 24.98 26.7 80 28 7 44.6
15:05 1017 30.03 846 24.98 27.1 80.9 28 7.3 45.2
15:10 1017 30.03 846 24.98 27.7 81.8 27 7.2 45
15:15 1017 30.03 846 24.98 28.5 83.3 25 7 44.5
15:20 1017 30.03 846 24.98 28 82.5 27 7.8 46
15:25 1017 30.03 846 24.98 28 82.4 28 8 46.3
15:30 1017 30.03 846 24.98 28.3 82.9 26 7.5 45.6
15:35 1017 30.03 846 24.98 27.2 80.9 29 7.9 46.2
15:40 1017 30.03 846 24.98 27.6 81.7 26 6.7 44
15:45 1016 30 846 24.98 28.9 84 26 7.6 45.6
15:50 1016 30 846 24.98 28.3 83 26 7.4 45.4
15:55 1016 30 845 24.95 28.7 83.6 26 7.8 46
16:00 1016 30 845 24.95 28.1 82.7 27 7.8 46.1
16:05 1016 30 845 24.95 28.3 83 24 6.4 43.6
16:10 1016 30 845 24.95 28.7 83.7 23 6.1 43.1
16:15 1016 30 845 24.95 28.5 83.2 23 5.9 42.6
16:20 1016 30 845 24.95 28.8 83.8 23 5.9 42.7
16:25 1016 30 845 24.95 28.6 83.5 21 4.4 40
16:30 1016 30 845 24.95 28.9 84.1 25 7.4 45.4
16:35 1016 30 845 24.95 29.3 84.7 22 5.7 42.3
16:40 1016 30 845 24.95 29.4 84.9 20 4.2 39.6
16:45 1016 30 845 24.95 29.7 85.4 19 3.8 38.8
16:50 1016 30 845 24.95 29.9 85.7 18 3.6 38.4
16:55 1015 29.97 845 24.95 30.2 86.4 16 1.8 35.2
17:00 1015 29.97 845 24.95 30.8 87.4 16 2.2 35.9
17:05 1015 29.97 845 24.95 30.8 87.4 17 3.4 38.1
17:10 1015 29.97 845 24.95 30.3 86.5 18 3.5 38.3
17:15 1015 29.97 845 24.95 29.2 84.6 17 2.1 35.8
17:20 1015 29.97 844 24.92 29.9 85.7 15 0.9 33.7
17:25 1015 29.97 844 24.92 30.4 86.6 16 1.7 35
17:30 1015 29.97 844 24.92 29.9 85.8 17 2.9 37.2
17:35 1015 29.97 844 24.92 29.5 85.2 20 4.5 40
17:40 1015 29.97 844 24.92 29.4 84.9 19 3.9 39
17:45 1015 29.97 844 24.92 29.1 84.3 20 3.9 39.1
17:50 1015 29.97 844 24.92 28.6 83.6 20 3.9 39.1
17:55 1015 29.97 844 24.92 28.4 83.2 20 3.6 38.4
18:00 1015 29.97 844 24.92 28.5 83.2 20 3.4 38.2
18:05 1015 29.97 844 24.92 28.6 83.4 20 3.6 38.5
18:10 1015 29.97 844 24.92 28.6 83.4 20 3.6 38.5
18:15 1015 29.97 844 24.92 28.3 83 20 3.6 38.5
18:20 1015 29.97 844 24.92 28.5 83.3 19 2.9 37.2
18:25 1015 29.97 844 24.92 28.2 82.8 19 3 37.3
18:30 1015 29.97 844 24.92 27.8 82 20 3.1 37.5
18:35 1015 29.97 844 24.92 27.2 81 21 3.2 37.7
18:40 1015 29.97 844 24.92 26.7 80.1 21 3 37.4
18:45 1015 29.97 845 24.95 26.2 79.2 24 4.2 39.6
18:50 1016 30 845 24.95 25.8 78.4 24 4.2 39.5
18:55 1016 30 845 24.95 25.1 77.2 26 4.4 40
19:00 1016 30 845 24.95 24.6 76.3 26 4.3 39.8
19:05 1016 30 845 24.95 24.4 75.9 28 4.8 40.6
19:10 1016 30 845 24.95 24.2 75.6 27 4.5 40
19:15 1016 30 845 24.95 24.1 75.3 28 4.6 40.3
19:20 1016 30 845 24.95 23.9 75 28 4.5 40
19:25 1016 30 845 24.95 23.4 74 29 4.7 40.5
19:30 1016 30 845 24.95 22.8 73 31 5.1 41.1
19:35 1016 30 845 24.95 22.4 72.2 32 5.2 41.3
19:40 1016 30 845 24.95 22.1 71.8 32 5 41
19:45 1016 30 845 24.95 22 71.6 33 5.1 41.1
19:50 1016 30 845 24.95 21.8 71.2 34 5.3 41.5
19:55 1016 30 845 24.95 21.4 70.5 35 5.5 41.9
20:00 1016 30 845 24.95 21 69.9 36 5.5 41.9
20:05 1016 30 845 24.95 21.1 70 35 5.2 41.3
20:10 1016 30 845 24.95 21.4 70.5 34 5.2 41.3
20:15 1016 30 845 24.95 21.5 70.7 33 4.9 40.9
20:20 1016 30 845 24.95 21.7 71 35 5.6 42
20:25 1016 30 845 24.95 21.8 71.2 33 4.9 40.8
20:30 1016 30 845 24.95 21.9 71.3 33 4.9 40.8
20:35 1016 30 845 24.95 22 71.7 31 4.4 40
20:40 1016 30 845 24.95 22.3 72.1 30 4.1 39.3
20:45 1016 30 845 24.95 22.3 72.1 31 4.5 40.2
20:50 1016 30 845 24.95 22 71.6 32 4.8 40.7
20:55 1016 30 845 24.95 21.8 71.2 33 5 41
21:00 1016 30 845 24.95 21.5 70.7 34 5 41.1
21:05 1016 30 845 24.95 21.2 70.1 35 5.1 41.2
21:10 1016 30 845 24.95 21 69.7 35 5 40.9
21:15 1016 30 845 24.95 20.9 69.7 38 6.2 43.2
21:20 1016 30 845 24.95 21 69.8 35 5 40.9
21:25 1016 30 845 24.95 21 69.7 36 5.7 42.3
21:30 1016 30 845 24.95 20.9 69.6 37 6 42.8
21:35 1016 30 845 24.95 21.1 69.9 34 4.7 40.5
21:40 1016 30 845 24.95 21.1 70 34 5 40.9
21:45 1016 30 845 24.95 21 69.7 38 6.5 43.6
21:50 1016 30 845 24.95 20 68.1 40 6.2 43.2
21:55 1016 30 845 24.95 19.5 67.1 40 5.8 42.4
22:00 1016 30 845 24.95 19.6 67.3 40 5.9 42.5
22:05 1016 30 845 24.95 19.5 67.1 41 6 42.8
22:10 1016 30 845 24.95 19.5 67 42 6.5 43.6
22:15 1016 30 845 24.95 19 66.1 42 5.8 42.5
22:20 1016 30 845 24.95 19.2 66.5 41 5.6 42.1
22:25 1016 30 845 24.95 19.1 66.5 42 6.2 43.1
22:30 1016 30 845 24.95 19.4 67 36 4.2 39.5
22:35 1016 30 845 24.95 19.8 67.6 37 4.8 40.6
22:40 1016 30 845 24.95 19.7 67.5 39 5.4 41.7
22:45 1016 30 845 24.95 19.5 67.1 39 5.4 41.7
22:50 1016 30 845 24.95 19.7 67.5 38 5.2 41.4
22:55 1016 30 845 24.95 19.4 66.8 40 5.7 42.3
23:00 1016 30 845 24.95 18.8 65.8 41 5.4 41.8
23:05 1016 30 845 24.95 18.7 65.6 41 5.3 41.6
23:10 1016 30 845 24.95 18.4 65.1 42 5.5 41.9
23:15 1016 30 845 24.95 18.3 64.9 43 5.7 42.3
23:20 1016 30 845 24.95 18.4 65.1 42 5.4 41.8
23:25 1016 30 845 24.95 18.7 65.6 44 6.2 43.2
23:30 1016 30 845 24.95 18.6 65.4 42 5.7 42.3
23:35 1016 30 845 24.95 18.7 65.6 43 5.9 42.6
23:40 1016 30 845 24.95 18.6 65.5 45 6.7 44.1
23:45 1016 30 845 24.95 18.6 65.4 41 5.1 41.2
23:50 1016 30 845 24.95 19 66.1 43 6.1 43.1
23:55 1016 30 845 24.95 18.8 65.8 41 5.3 41.5
24:00 1016 30 845 24.95 19.1 66.4 41 5.8 42.4